Bannock, OH (43972)

4:12 PM EDT on July 30, 2014 (GMT -0400)
Shadyside, Ohio (KOHSHADY2) Elev 669 ft | 39.98 °N, 80.74 °W | Change Station

Current weather conditions updated 6 seconds ago

Overcast
Overcast
76.6 °F
Feels Like 78 °F
N
3.0
Wind Variable Wind from SSW
Gusts 7.0 mph

Tomorrow is forecast to be nearly the same temperature as today. Afternoon showers.

Today
High -- | Low -- °F
--% Chance of Precip.
Yesterday
High -- | Low -- °F
Precip. -- in
6:20 AM 8:39 PM
Waxing Crescent, 13% visible
Pressure 30.02 in
Visibility 10.0 miles
Clouds Few 3000 ft
Overcast 9500 ft
Heat Index 78 °F
Dew Point 61 °F
Humidity 58%
Rainfall 0.00 in
Snow Depth Not available.
UV 2 out of 12
Pollen 6.20 out of 12
Air Quality Not available.
Flu Activity Not available.
METAR KHLG 301953Z 33003KT 10SM FEW030 OVC095 21/16 A3002 RMK AO2 LTG DSNT E AND W AND NW RAB1854E03 SLP166 P0000 T02110156

More Conditions Fewer Conditions

Pressure 30.02 in
Visibility 10.0 miles
Clouds Few 3000 ft
Overcast 9500 ft
Heat Index 78 °F
Dew Point 61 °F
Humidity 58%
Rainfall 0.00 in
Snow Depth Not available.
UV 2 out of 12
Pollen 6.20 out of 12
Air Quality Not available.
Flu Activity Not available.
METAR KHLG 301953Z 33003KT 10SM FEW030 OVC095 21/16 A3002 RMK AO2 LTG DSNT E AND W AND NW RAB1854E03 SLP166 P0000 T02110156

More Conditions Fewer Conditions

10-Day Weather Forecast

Almanac

Astronomy

Jul. 30, 2014 Rise Set
Actual Time 6:20 AM EDT 8:39 PM EDT
Civil Twilight 5:49 AM EDT 9:10 PM EDT
Nautical Twilight 5:11 AM EDT 9:47 PM EDT
Astronomical Twilight 4:30 AM EDT 10:29 PM EDT
Moon 9:50 AM EDT 10:21 PM EDT
Length of Visible Light 15h 20m
Length of Day
14h 19m
Tomorrow will be 1m 56s shorter.
Waxing Crescent, 13% of the Moon is Illuminated
Today
Waxing Crescent
Aug 3
First Quarter
Aug 10
Full
Aug 17
Last Quarter
Aug 25
New

Today's Extremes

State Highs State Lows

Community

WunderPhotos

Upload Photos

1,739,178 photos uploaded!

WunderBlogs® & News

Nearby

Snow Depth

Station Depth Elevation
No new snow has been reported.

Earthquake Activity

City Distance Mag. Time & Date
No recent earthquake activity has been reported nearby.
Minimum magnitude displayed is 2.5.

Coastal Water Temperatures

Place Temperature
No Stations Reporting

Nearby Weather Stations

Station Location Temp. Heat Index Dew Point Humidity Wind Precip. Elev Updated Type
Shadyside, Ohio, Shadyside, OH 76.6 °F 78 °F 61 °F 58% SSW  at  3.0 mph 0.00 in / hr 669 ft 4:12 PM EDT Rapid Fire
Whitmar Hills, Wheeling, WV 70.4 °F 72 °F 63 °F 77% NNW  at  0.0 mph 0.00 in / hr 1060 ft 4:10 PM EDT Normal
Jerusalem, Jerusalem, OH 72.0 °F 75 °F 60 °F 66% WSW  at  2.0 mph 0.00 in / hr 1253 ft 4:12 PM EDT Rapid Fire
Sunset Gardens, Wintersville, OH 69.2 °F - 60 °F 72% WSW  at  1.0 mph 0.00 in / hr 1150 ft 4:05 PM EDT Normal

Show More Stations Show Fewer Stations